createdAt,value
2023-08-01T00:26:56.805Z,42
2023-08-01T00:32:12.989Z,42
2023-08-01T00:37:28.455Z,42
2023-08-01T00:42:44.627Z,42
2023-08-01T00:48:00.992Z,42
2023-08-01T00:53:16.308Z,41
2023-08-01T00:58:32.492Z,41
2023-08-01T01:03:46.696Z,41
2023-08-01T01:09:01.613Z,41
2023-08-01T01:14:18.522Z,41
2023-08-01T01:19:34.587Z,41
2023-08-01T01:24:50.093Z,41
2023-08-01T01:30:04.988Z,42
2023-08-01T01:35:19.837Z,42
2023-08-01T01:40:35.979Z,42
2023-08-01T01:45:50.864Z,42
2023-08-01T01:51:06.392Z,42
2023-08-01T01:56:21.301Z,42
2023-08-01T02:01:43.493Z,42
2023-08-01T02:22:39.089Z,41
2023-08-01T02:27:53.744Z,41
2023-08-01T02:33:09.054Z,41
2023-08-01T02:38:24.794Z,41
2023-08-01T02:43:39.047Z,41
2023-08-01T02:48:54.566Z,41
2023-08-01T02:54:10.066Z,41
2023-08-01T02:59:24.973Z,41
2023-08-01T03:04:47.556Z,41
2023-08-01T03:09:57.204Z,41
2023-08-01T03:20:27.859Z,42
2023-08-01T03:25:42.712Z,41
2023-08-01T03:30:58.088Z,42
2023-08-01T03:36:13.603Z,42
2023-08-01T03:41:28.712Z,42
2023-08-01T03:46:44.640Z,42
2023-08-01T03:52:00.970Z,42
2023-08-01T03:57:16.348Z,42
2023-08-01T04:02:31.324Z,42
2023-08-01T04:07:47.413Z,42
2023-08-01T04:13:03.540Z,42
2023-08-01T05:42:29.488Z,42
2023-08-01T05:47:44.929Z,42
2023-08-01T05:53:00.337Z,42
2023-08-01T05:58:15.184Z,42
2023-08-01T06:03:31.849Z,42
2023-08-01T06:08:46.291Z,42
2023-08-01T06:14:01.109Z,42
2023-08-01T06:19:16.675Z,42
2023-08-01T06:24:32.798Z,42
2023-08-01T06:29:48.966Z,42
2023-08-01T06:35:05.113Z,42
2023-08-01T06:40:21.298Z,42
2023-08-01T06:45:36.148Z,42
2023-08-01T06:50:52.304Z,42
2023-08-01T06:56:07.866Z,42
2023-08-01T07:01:22.794Z,43
2023-08-01T07:06:40.946Z,42
2023-08-01T07:11:56.353Z,42
2023-08-01T07:17:12.566Z,42
2023-08-01T07:22:28.006Z,42
2023-08-01T07:27:43.540Z,42
2023-08-01T07:32:59.845Z,42
2023-08-01T07:38:16.494Z,41
2023-08-01T07:43:32.016Z,41
2023-08-01T07:48:46.964Z,42
2023-08-01T07:54:03.929Z,42
2023-08-01T07:59:19.221Z,41
2023-08-01T08:04:35.373Z,42
2023-08-01T08:09:51.587Z,42
2023-08-01T08:20:27.430Z,41
2023-08-01T08:25:42.993Z,41
2023-08-01T08:30:53.037Z,40
2023-08-01T08:36:09.163Z,40
2023-08-01T08:41:23.344Z,40
2023-08-01T08:46:38.779Z,40
2023-08-01T08:51:53.110Z,40
2023-08-01T08:57:08.095Z,40
2023-08-01T09:02:24.142Z,39
2023-08-01T09:07:40.308Z,39
2023-08-01T09:12:56.037Z,39
2023-08-01T09:18:11.357Z,38
2023-08-01T09:23:26.249Z,38
2023-08-01T09:28:41.201Z,38
2023-08-01T09:33:56.628Z,39
2023-08-01T09:39:13.449Z,40
2023-08-01T09:44:28.325Z,39
2023-08-01T09:49:43.186Z,38
2023-08-01T09:54:58.717Z,38
2023-08-01T10:00:15.325Z,37
2023-08-01T10:05:29.791Z,37
2023-08-01T10:10:46.571Z,37
2023-08-01T10:16:01.571Z,37
2023-08-01T10:21:16.993Z,38
2023-08-01T10:26:33.794Z,36
2023-08-01T10:31:50.657Z,36
2023-08-01T10:37:07.394Z,35
2023-08-01T10:42:22.278Z,34
2023-08-01T10:47:37.910Z,35
2023-08-01T10:52:53.270Z,35
2023-08-01T10:58:08.818Z,36
2023-08-01T11:03:25.155Z,37
2023-08-01T11:17:52.970Z,37
2023-08-01T11:23:08.483Z,37
2023-08-01T11:28:23.348Z,37
2023-08-01T11:33:39.407Z,37
2023-08-01T11:38:55.539Z,37
2023-08-01T11:44:10.434Z,37
2023-08-01T12:05:14.046Z,38
2023-08-01T12:10:29.945Z,38
2023-08-01T12:26:51.203Z,38
2023-08-01T12:32:06.578Z,39
2023-08-01T12:37:21.430Z,38
2023-08-01T12:42:37.596Z,37
2023-08-01T12:47:53.878Z,37
2023-08-01T12:53:08.751Z,37
2023-08-01T12:58:25.429Z,37
2023-08-01T13:03:41.703Z,37
2023-08-01T13:08:57.799Z,37
2023-08-01T13:14:12.640Z,36
2023-08-01T13:19:28.152Z,36
2023-08-01T13:24:43.032Z,36
2023-08-01T13:29:57.300Z,36
2023-08-01T13:35:12.794Z,36
2023-08-01T13:40:28.964Z,36
2023-08-01T13:45:54.872Z,36
2023-08-01T13:51:06.295Z,36
2023-08-01T13:56:21.211Z,35
2023-08-01T14:01:35.276Z,34
2023-08-01T14:06:51.371Z,34
2023-08-01T14:17:15.678Z,34
2023-08-01T14:22:31.224Z,34
2023-08-01T14:27:46.719Z,34
2023-08-01T14:33:03.163Z,34
2023-08-01T14:48:50.839Z,33
2023-08-01T14:54:08.254Z,33
2023-08-01T14:59:24.319Z,32
2023-08-01T15:04:39.314Z,32
2023-08-01T15:09:54.805Z,31
2023-08-01T15:15:10.979Z,31
2023-08-01T15:20:27.208Z,32
2023-08-01T15:25:42.673Z,32
2023-08-01T15:30:57.454Z,31
2023-08-01T15:36:12.324Z,31
2023-08-01T15:41:27.271Z,32
2023-08-01T15:46:42.272Z,32
2023-08-01T15:51:57.598Z,32
2023-08-01T15:57:13.111Z,32
2023-08-01T16:02:29.475Z,31
2023-08-01T16:07:45.452Z,31
2023-08-01T16:13:02.258Z,32
2023-08-01T16:18:17.107Z,32
2023-08-01T16:23:32.657Z,31
2023-08-01T16:28:48.179Z,32
2023-08-01T16:34:03.730Z,31
2023-08-01T16:39:19.837Z,31
2023-08-01T16:44:34.711Z,31
2023-08-01T16:49:51.754Z,31
2023-08-01T16:55:07.030Z,31
2023-08-01T17:00:21.286Z,30
2023-08-01T17:05:38.078Z,29
2023-08-01T17:10:53.661Z,29
2023-08-01T17:16:08.480Z,29
2023-08-01T17:21:24.631Z,29
2023-08-01T17:26:40.478Z,29
2023-08-01T17:31:54.384Z,29
2023-08-01T17:37:09.318Z,29
2023-08-01T17:42:25.444Z,29
2023-08-01T17:47:41.657Z,29
2023-08-01T17:52:56.524Z,28
2023-08-01T17:58:12.644Z,28
2023-08-01T18:03:27.631Z,28
2023-08-01T18:08:42.405Z,28
2023-08-01T18:13:58.589Z,29
2023-08-01T18:19:13.483Z,28
2023-08-01T18:24:28.960Z,28
2023-08-01T18:29:43.869Z,28
2023-08-01T18:34:58.075Z,28
2023-08-01T18:40:13.018Z,28
2023-08-01T18:45:29.770Z,28
2023-08-01T18:50:45.922Z,28
2023-08-01T18:56:02.068Z,28
2023-08-01T19:01:18.435Z,28
2023-08-01T19:06:34.015Z,29
2023-08-01T19:11:49.279Z,29
2023-08-01T19:17:05.488Z,29
2023-08-01T19:22:21.603Z,29
2023-08-01T19:27:35.975Z,29
2023-08-01T19:32:52.219Z,29
2023-08-01T19:38:08.164Z,29
2023-08-01T19:43:24.957Z,29
2023-08-01T19:48:41.124Z,30
2023-08-01T19:53:56.739Z,30
2023-08-01T19:59:11.522Z,30
2023-08-01T20:04:26.835Z,30
2023-08-01T20:09:41.273Z,30
2023-08-01T20:14:56.826Z,30
2023-08-01T20:20:12.970Z,30
2023-08-01T20:25:28.484Z,30
2023-08-01T21:18:05.961Z,31
2023-08-01T21:23:20.484Z,31
2023-08-01T21:28:36.004Z,31
2023-08-01T21:33:52.208Z,32
2023-08-01T21:39:07.694Z,32
2023-08-01T21:44:23.853Z,32
2023-08-01T21:49:38.761Z,32
2023-08-01T21:54:54.887Z,32
2023-08-01T22:00:10.398Z,32
2023-08-01T22:05:25.957Z,32
2023-08-01T22:10:42.094Z,33
2023-08-01T22:15:56.507Z,33
2023-08-01T22:21:11.207Z,33
2023-08-01T22:26:26.763Z,33
2023-08-01T22:31:42.254Z,33
2023-08-01T22:36:57.761Z,33
2023-08-01T22:42:12.645Z,33
2023-08-01T22:47:28.931Z,33
2023-08-01T22:52:44.326Z,33
2023-08-01T22:57:59.209Z,33
2023-08-01T23:03:14.943Z,34
2023-08-01T23:08:30.913Z,34
2023-08-01T23:13:45.774Z,34
2023-08-01T23:19:00.748Z,34
2023-08-01T23:24:16.162Z,34
2023-08-01T23:29:32.316Z,34
2023-08-01T23:34:48.535Z,34
2023-08-01T23:40:04.012Z,34
2023-08-01T23:45:20.203Z,34
2023-08-01T23:50:36.325Z,35
2023-08-01T23:55:51.874Z,35
